Terminal Aerodrome Forecast
Issued by NWS Louisville, KY

Home | Current Version | Previous Version | Text Only | Print | Product List | Glossary On
Versions: 1 2 3 4 5 6 7 8 9 10 11 12 13 14 15 16 17
000
FTUS43 KLMK 270500
TAFBWG
TAF
KBWG 270520Z 2706/2806 VRB03KT 5SM -SN OVC025
     FM270800 VRB03KT 2SM -SN OVC007
     FM271100 34004KT P6SM OVC012
     FM271600 34006KT P6SM OVC022
     FM280000 36003KT P6SM SCT030=

USA.gov is the U.S. government's official web portal to all federal, state and local government web resources and services.